SLLP/LPB METAR and TAF weather

Enter ICAO airport designator
Station Type Date Time Source
SLLP METAR 2019/06/26 20:00 UTC NOAA

SLLP 262000Z 28013G23KT 250V320 9999 NSC 13/M13 Q1032


Station Type Date Time Source
SLLP Decoded METAR 2019/06/26 20:00 UTC NOAA

La Paz / Alto, Bolivia (SLLP) 16-31S 068-11W 4038M
Jun 26, 2019 - 04:00 PM EDT / 2019.06.26 2000 UTC
Wind: from the W (280 degrees) at 15 MPH (13 KT) gusting to 26 MPH (23 KT) (direction variable):0
Visibility: greater than 7 mile(s):0
Temperature: 55 F (13 C)
Dew Point: 8 F (-13 C)
Relative Humidity: 15%
Pressure (altimeter): 30.47 in. Hg (1032 hPa)
ob: SLLP 262000Z 28013G23KT 250V320 9999 NSC 13/M13 Q1032
cycle: 20

Station Type Date Time Source
SLLP TAF 2019/06/26 18:39 UTC NOAA

TAF SLLP 261635Z 2618/2718 30012G20KT 9999 FEW017 TX15/2620Z TNM07/2710Z
BECMG 2623/2701 04004KT
BECMG 2712/2714 24006KT

Example: see airport list